createdAt,value
2018-12-21T00:00:11.423Z,10.23
2018-12-21T00:02:39.223Z,9.10
2018-12-21T00:05:07.067Z,5.63
2018-12-21T00:07:34.864Z,9.93
2018-12-21T00:10:04.332Z,10.37
2018-12-21T00:12:32.221Z,10.43
2018-12-21T00:15:00.061Z,6.23
2018-12-21T00:17:34.510Z,6.73
2018-12-21T00:19:57.656Z,11.03
2018-12-21T00:22:25.472Z,9.43
2018-12-21T00:24:53.271Z,5.40
2018-12-21T00:27:21.113Z,9.57
2018-12-21T00:29:48.942Z,10.20
2018-12-21T00:32:23.390Z,8.80
2018-12-21T00:34:56.747Z,4.93
2018-12-21T00:37:30.189Z,10.90
2018-12-21T00:40:03.495Z,8.27
2018-12-21T00:42:43.197Z,5.67
2018-12-21T00:45:16.110Z,10.57
2018-12-21T00:47:44.346Z,9.80
2018-12-21T00:50:12.233Z,6.93
2018-12-21T00:52:40.061Z,4.73
2018-12-21T00:55:07.821Z,9.23
2018-12-21T00:57:35.702Z,5.80
2018-12-21T01:00:05.986Z,4.63
2018-12-21T01:02:34.585Z,9.67
2018-12-21T01:05:02.776Z,9.23
2018-12-21T01:07:30.848Z,7.83
2018-12-21T01:09:59.297Z,9.20
2018-12-21T01:12:27.150Z,11.23
2018-12-21T01:14:55.407Z,12.47
2018-12-21T01:17:23.207Z,9.63
2018-12-21T01:19:51.342Z,10.57
2018-12-21T01:22:19.191Z,11.17
2018-12-21T01:24:47.014Z,15.90
2018-12-21T01:27:16.166Z,8.20
2018-12-21T01:29:43.991Z,6.03
2018-12-21T01:32:12.089Z,8.70
2018-12-21T01:34:40.147Z,9.93
2018-12-21T01:37:08.008Z,8.60
2018-12-21T01:39:36.115Z,7.40
2018-12-21T01:42:03.919Z,10.17
2018-12-21T01:44:32.027Z,6.63
2018-12-21T01:46:59.926Z,4.37
2018-12-21T01:49:28.004Z,13.20
2018-12-21T01:51:55.747Z,7.53
2018-12-21T01:54:23.892Z,7.77
2018-12-21T01:56:51.958Z,8.60
2018-12-21T01:59:20.035Z,7.60
2018-12-21T02:01:47.894Z,6.30
2018-12-21T02:04:15.770Z,14.93
2018-12-21T02:06:43.826Z,9.43
2018-12-21T02:09:11.623Z,12.63
2018-12-21T02:11:39.423Z,12.23
2018-12-21T02:14:07.469Z,16.43
2018-12-21T02:16:35.696Z,17.93
2018-12-21T02:19:03.614Z,15.97
2018-12-21T02:21:32.651Z,16.93
2018-12-21T02:24:00.517Z,19.07
2018-12-21T02:26:28.422Z,18.50
2018-12-21T02:28:56.158Z,24.83
2018-12-21T02:31:24.048Z,19.13
2018-12-21T02:33:51.829Z,22.60
2018-12-21T02:36:19.614Z,19.07
2018-12-21T02:38:47.391Z,17.10
2018-12-21T02:41:15.279Z,21.47
2018-12-21T02:43:45.265Z,22.40
2018-12-21T02:46:14.291Z,20.57
2018-12-21T02:48:42.088Z,17.50
2018-12-21T02:51:09.900Z,20.83
2018-12-21T02:53:37.700Z,17.53
2018-12-21T02:56:05.569Z,17.30
2018-12-21T02:58:33.355Z,20.80
2018-12-21T03:01:01.138Z,17.63
2018-12-21T03:03:28.942Z,19.73
2018-12-21T03:05:56.749Z,15.73
2018-12-21T03:08:24.597Z,14.50
2018-12-21T03:10:52.373Z,15.00
2018-12-21T03:13:20.228Z,14.23
2018-12-21T03:15:50.175Z,13.37
2018-12-21T03:18:17.973Z,9.20
2018-12-21T03:20:45.721Z,11.53
2018-12-21T03:23:13.499Z,12.03
2018-12-21T03:25:41.287Z,9.23
2018-12-21T03:28:09.165Z,7.90
2018-12-21T03:30:37.035Z,7.57
2018-12-21T03:33:05.030Z,6.83
2018-12-21T03:35:32.793Z,6.57
2018-12-21T03:38:00.570Z,6.53
2018-12-21T03:40:28.329Z,9.63
2018-12-21T03:42:56.332Z,8.60
2018-12-21T03:45:24.165Z,10.43
2018-12-21T03:47:51.989Z,6.03
2018-12-21T03:50:19.778Z,11.27
2018-12-21T03:52:47.622Z,9.47
2018-12-21T03:55:15.376Z,8.83
2018-12-21T03:57:43.260Z,7.27
2018-12-21T04:00:11.213Z,5.77
2018-12-21T04:02:38.980Z,5.33
2018-12-21T04:05:06.823Z,4.53
2018-12-21T04:07:34.630Z,4.00
2018-12-21T04:10:02.630Z,5.27
2018-12-21T04:12:30.431Z,4.80
2018-12-21T04:14:58.352Z,6.03
2018-12-21T04:17:26.098Z,5.20
2018-12-21T04:19:53.941Z,6.90
2018-12-21T04:22:21.720Z,6.90
2018-12-21T04:24:49.555Z,7.80
2018-12-21T04:27:17.308Z,7.30
2018-12-21T04:29:45.177Z,8.00
2018-12-21T04:32:12.938Z,8.20
2018-12-21T04:34:40.714Z,7.30
2018-12-21T04:37:08.444Z,6.70
2018-12-21T04:39:36.381Z,5.90
2018-12-21T04:42:04.176Z,5.83
2018-12-21T04:44:32.011Z,5.80
2018-12-21T04:46:59.808Z,5.73
2018-12-21T04:49:27.622Z,5.40
2018-12-21T04:51:55.356Z,4.23
2018-12-21T04:54:23.183Z,4.30
2018-12-21T04:56:50.971Z,4.00
2018-12-21T04:59:18.728Z,4.20
2018-12-21T05:01:46.594Z,3.77
2018-12-21T05:04:19.693Z,2.47
2018-12-21T05:06:44.176Z,2.57
2018-12-21T05:09:11.979Z,4.03
2018-12-21T05:11:39.781Z,3.17
2018-12-21T05:14:08.143Z,3.10
2018-12-21T05:16:36.207Z,3.77
2018-12-21T05:19:04.042Z,2.63
2018-12-21T05:21:31.812Z,2.87
2018-12-21T05:23:59.688Z,4.87
2018-12-21T05:26:27.475Z,3.27
2018-12-21T05:28:55.326Z,3.13
2018-12-21T05:31:28.447Z,3.87
2018-12-21T05:33:54.972Z,2.60
2018-12-21T05:36:22.733Z,2.40
2018-12-21T05:38:50.593Z,2.13
2018-12-21T05:41:18.388Z,2.03
2018-12-21T05:43:46.208Z,1.70
2018-12-21T05:46:13.989Z,2.63
2018-12-21T05:48:41.918Z,1.47
2018-12-21T05:51:09.698Z,2.23
2018-12-21T05:53:37.610Z,1.83
2018-12-21T05:56:05.378Z,0.80
2018-12-21T05:58:33.226Z,0.90
2018-12-21T06:01:01.132Z,0.87
2018-12-21T06:03:28.958Z,0.93
2018-12-21T06:05:56.927Z,1.30
2018-12-21T06:08:24.663Z,1.93
2018-12-21T06:10:52.517Z,0.50
2018-12-21T06:13:20.265Z,1.70
2018-12-21T06:15:48.145Z,0.63
2018-12-21T06:18:15.981Z,2.50
2018-12-21T06:20:43.801Z,1.10
2018-12-21T06:23:11.587Z,2.43
2018-12-21T06:25:39.422Z,2.83
2018-12-21T06:28:07.214Z,4.00
2018-12-21T06:30:37.342Z,3.73
2018-12-21T06:33:05.097Z,4.10
2018-12-21T06:35:32.953Z,5.17
2018-12-21T06:38:00.761Z,4.43
2018-12-21T06:40:30.855Z,5.63
2018-12-21T06:42:58.658Z,4.70
2018-12-21T06:45:26.497Z,3.90
2018-12-21T06:47:54.280Z,4.40
2018-12-21T06:50:23.151Z,3.90
2018-12-21T06:52:50.966Z,4.63
2018-12-21T06:55:18.854Z,4.43
2018-12-21T06:57:46.620Z,5.23
2018-12-21T07:00:14.391Z,4.50
2018-12-21T07:02:42.236Z,4.47
2018-12-21T07:05:10.153Z,3.90
2018-12-21T07:07:40.221Z,3.73
2018-12-21T07:10:09.092Z,3.03
2018-12-21T07:12:37.031Z,3.07
2018-12-21T07:15:05.256Z,3.73
2018-12-21T07:17:33.142Z,2.50
2018-12-21T07:20:00.916Z,2.67
2018-12-21T07:22:29.772Z,2.17
2018-12-21T07:24:57.601Z,1.70
2018-12-21T07:27:25.483Z,1.10
2018-12-21T07:29:53.343Z,1.53
2018-12-21T07:32:21.135Z,1.40
2018-12-21T07:34:48.905Z,1.10
2018-12-21T07:37:17.838Z,1.50
2018-12-21T07:39:45.601Z,0.97
2018-12-21T07:42:13.408Z,2.00
2018-12-21T07:44:41.521Z,2.67
2018-12-21T07:47:09.408Z,2.73
2018-12-21T07:49:37.188Z,3.27
2018-12-21T07:52:05.066Z,2.90
2018-12-21T07:54:32.877Z,3.30
2018-12-21T07:57:01.756Z,2.47
2018-12-21T07:59:29.586Z,4.17
2018-12-21T08:01:57.349Z,3.53
2018-12-21T08:04:25.177Z,4.10
2018-12-21T08:06:52.961Z,4.93
2018-12-21T08:09:20.908Z,4.70
2018-12-21T08:11:48.878Z,6.13
2018-12-21T08:14:16.739Z,6.53
2018-12-21T08:16:44.609Z,7.40
2018-12-21T08:19:12.467Z,7.63
2018-12-21T08:21:40.342Z,8.97
2018-12-21T08:24:08.212Z,7.40
2018-12-21T08:26:36.046Z,6.37
2018-12-21T08:29:03.973Z,7.83
2018-12-21T08:31:31.765Z,12.63
2018-12-21T08:33:59.686Z,6.03
2018-12-21T08:36:27.457Z,8.70
2018-12-21T08:38:55.282Z,9.13
2018-12-21T08:41:23.075Z,9.40
2018-12-21T08:43:51.083Z,5.80
2018-12-21T08:46:18.889Z,7.97
2018-12-21T08:48:46.706Z,8.97
2018-12-21T08:51:14.567Z,3.63
2018-12-21T08:53:42.499Z,8.17
2018-12-21T08:56:10.320Z,2.97
2018-12-21T08:58:38.186Z,3.57
2018-12-21T09:01:06.353Z,4.63
2018-12-21T09:03:34.230Z,2.53
2018-12-21T09:06:02.526Z,2.40
2018-12-21T09:08:30.441Z,3.43
2018-12-21T09:10:58.252Z,0.40
2018-12-21T09:13:26.068Z,2.23
2018-12-21T09:15:54.017Z,0.73
2018-12-21T09:18:21.841Z,0.20
2018-12-21T09:20:49.707Z,1.90
2018-12-21T09:23:17.496Z,0.57
2018-12-21T09:25:45.364Z,0.30
2018-12-21T09:28:13.144Z,1.27
2018-12-21T09:30:40.989Z,1.10
2018-12-21T09:33:08.801Z,0.47
2018-12-21T09:35:36.690Z,0.43
2018-12-21T09:38:04.480Z,1.33
2018-12-21T09:40:32.614Z,0.87
2018-12-21T09:43:00.412Z,0.93
2018-12-21T09:45:28.726Z,1.27
2018-12-21T09:47:56.539Z,0.37
2018-12-21T09:50:24.451Z,0.63
2018-12-21T09:52:52.232Z,0.70
2018-12-21T09:55:20.076Z,0.93
2018-12-21T09:57:47.843Z,1.97
2018-12-21T10:00:15.653Z,0.57
2018-12-21T10:02:43.429Z,6.47
2018-12-21T10:05:14.518Z,1.73
2018-12-21T10:07:42.432Z,1.37
2018-12-21T10:10:10.469Z,1.40
2018-12-21T10:12:38.258Z,5.97
2018-12-21T10:15:06.794Z,0.27
2018-12-21T10:17:34.600Z,0.67
2018-12-21T10:20:03.857Z,0.73
2018-12-21T10:22:31.637Z,1.37
2018-12-21T10:24:59.477Z,2.40
2018-12-21T10:27:27.319Z,1.20
2018-12-21T10:29:55.220Z,1.17
2018-12-21T10:32:22.995Z,1.70
2018-12-21T10:34:50.875Z,3.33
2018-12-21T10:37:18.644Z,2.03
2018-12-21T10:39:46.481Z,2.13
2018-12-21T10:42:14.301Z,1.70
2018-12-21T10:44:42.128Z,1.60
2018-12-21T10:47:09.938Z,1.53
2018-12-21T10:49:37.906Z,3.33
2018-12-21T10:52:05.796Z,4.53
2018-12-21T10:54:33.670Z,2.47
2018-12-21T10:57:01.495Z,3.77
2018-12-21T10:59:29.315Z,3.07
2018-12-21T11:01:57.178Z,2.00
2018-12-21T11:04:24.961Z,4.17
2018-12-21T11:06:52.811Z,6.87
2018-12-21T11:09:20.661Z,8.17
2018-12-21T11:11:48.549Z,6.23
2018-12-21T11:14:16.367Z,4.27
2018-12-21T11:16:44.222Z,5.27
2018-12-21T11:19:12.040Z,3.33
2018-12-21T11:21:39.876Z,6.97
2018-12-21T11:24:07.707Z,8.27
2018-12-21T11:26:35.547Z,10.33
2018-12-21T11:29:03.356Z,7.03
2018-12-21T11:31:31.258Z,8.27
2018-12-21T11:33:59.086Z,7.30
2018-12-21T11:36:26.918Z,5.43
2018-12-21T11:38:54.721Z,9.63
2018-12-21T11:41:22.505Z,8.07
2018-12-21T11:43:50.296Z,6.77
2018-12-21T11:46:18.157Z,12.87
2018-12-21T11:48:45.949Z,6.67
2018-12-21T11:51:13.831Z,7.33
2018-12-21T11:53:41.672Z,11.07
2018-12-21T11:56:09.530Z,10.57
2018-12-21T11:58:37.326Z,6.73
2018-12-21T12:01:05.147Z,11.47
2018-12-21T12:03:32.943Z,12.73
2018-12-21T12:06:00.770Z,11.90
2018-12-21T12:08:28.566Z,14.00
2018-12-21T12:10:56.368Z,11.93
2018-12-21T12:13:24.150Z,12.87
2018-12-21T12:15:53.041Z,13.13
2018-12-21T12:18:20.886Z,14.10
2018-12-21T12:20:48.677Z,15.77
2018-12-21T12:23:16.484Z,15.37
2018-12-21T12:25:44.321Z,15.27
2018-12-21T12:28:12.123Z,16.60
2018-12-21T12:30:39.939Z,22.23
2018-12-21T12:33:07.720Z,19.60
2018-12-21T12:35:35.588Z,20.03
2018-12-21T12:38:03.336Z,16.53
2018-12-21T12:40:31.299Z,20.93
2018-12-21T12:42:59.106Z,15.60
2018-12-21T12:45:26.962Z,21.93
2018-12-21T12:47:54.780Z,16.63
2018-12-21T12:50:22.720Z,21.67
2018-12-21T12:52:50.546Z,20.73
2018-12-21T12:55:18.480Z,23.00
2018-12-21T12:57:46.269Z,18.97
2018-12-21T13:00:14.234Z,16.00
2018-12-21T13:02:42.013Z,23.57
2018-12-21T13:05:09.916Z,24.17
2018-12-21T13:07:37.726Z,29.47
2018-12-21T13:10:06.766Z,21.47
2018-12-21T13:12:34.820Z,26.20
2018-12-21T13:15:02.815Z,14.80
2018-12-21T13:17:30.614Z,22.33
2018-12-21T13:19:58.512Z,26.90
2018-12-21T13:22:26.288Z,28.17
2018-12-21T13:24:54.188Z,21.57
2018-12-21T13:27:22.043Z,23.00
2018-12-21T13:29:49.889Z,27.77
2018-12-21T13:32:17.716Z,29.60
2018-12-21T13:34:45.536Z,22.40
2018-12-21T13:37:13.321Z,25.27
2018-12-21T13:39:41.119Z,33.67
2018-12-21T13:42:08.971Z,20.57
2018-12-21T13:44:36.902Z,21.47
2018-12-21T13:47:04.742Z,29.17
2018-12-21T13:49:32.759Z,22.37
2018-12-21T13:52:00.577Z,29.47
2018-12-21T13:54:28.464Z,22.37
2018-12-21T13:56:56.294Z,29.33
2018-12-21T13:59:24.205Z,31.60
2018-12-21T14:01:52.032Z,35.70
2018-12-21T14:04:20.445Z,24.90
2018-12-21T14:06:49.367Z,32.73
2018-12-21T14:09:17.365Z,27.53
2018-12-21T14:11:45.637Z,33.47
2018-12-21T14:14:13.430Z,24.03
2018-12-21T14:16:41.415Z,34.97
2018-12-21T14:19:09.276Z,34.63
2018-12-21T14:21:37.348Z,29.60
2018-12-21T14:24:05.410Z,41.47
2018-12-21T14:26:33.662Z,40.37
2018-12-21T14:29:01.537Z,32.23
2018-12-21T14:31:31.165Z,41.33
2018-12-21T14:33:59.120Z,35.23
2018-12-21T14:36:27.179Z,37.80
2018-12-21T14:38:55.083Z,36.97
2018-12-21T14:41:23.146Z,27.83
2018-12-21T14:43:51.105Z,37.73
2018-12-21T14:46:21.068Z,37.87
2018-12-21T14:48:48.825Z,35.63
2018-12-21T14:51:16.605Z,31.80
2018-12-21T14:53:44.533Z,35.63
2018-12-21T14:56:12.544Z,38.07
2018-12-21T14:58:40.640Z,31.37
2018-12-21T15:01:08.498Z,51.77
2018-12-21T15:03:36.567Z,33.53
2018-12-21T15:06:04.647Z,43.30
2018-12-21T15:08:32.650Z,40.60
2018-12-21T15:11:00.578Z,30.67
2018-12-21T15:13:28.363Z,33.10
2018-12-21T15:15:56.665Z,40.70
2018-12-21T15:18:25.382Z,28.17
2018-12-21T15:20:53.670Z,28.53
2018-12-21T15:23:21.554Z,37.13
2018-12-21T15:25:50.338Z,39.03
2018-12-21T15:28:18.527Z,37.70
2018-12-21T15:30:46.651Z,32.10
2018-12-21T15:33:15.679Z,38.90
2018-12-21T15:35:43.761Z,34.73
2018-12-21T15:38:11.693Z,31.83
2018-12-21T15:40:39.669Z,44.27
2018-12-21T15:43:07.758Z,33.00
2018-12-21T15:45:35.966Z,39.27
2018-12-21T15:48:03.768Z,40.70
2018-12-21T15:50:32.152Z,39.03
2018-12-21T15:53:00.268Z,45.57
2018-12-21T15:55:28.270Z,34.33
2018-12-21T15:57:56.872Z,36.43
2018-12-21T16:00:25.864Z,43.90
2018-12-21T16:02:55.327Z,39.13
2018-12-21T16:05:23.095Z,40.05
2018-12-21T16:07:50.975Z,43.23
2018-12-21T16:10:18.786Z,48.67
2018-12-21T16:12:46.702Z,43.33
2018-12-21T16:15:14.547Z,38.53
2018-12-21T16:17:42.582Z,39.30
2018-12-21T16:20:12.115Z,39.03
2018-12-21T16:22:42.555Z,39.90
2018-12-21T16:25:10.439Z,35.47
2018-12-21T16:27:38.254Z,31.27
2018-12-21T16:30:08.058Z,43.73
2018-12-21T16:32:36.153Z,43.23
2018-12-21T16:35:04.386Z,36.37
2018-12-21T16:37:33.229Z,40.37
2018-12-21T16:40:01.131Z,38.37
2018-12-21T16:42:29.198Z,47.30
2018-12-21T16:44:56.994Z,36.43
2018-12-21T16:47:24.936Z,35.13
2018-12-21T16:49:52.927Z,43.00
2018-12-21T16:52:20.957Z,45.13
2018-12-21T16:54:49.156Z,45.03
2018-12-21T16:57:18.295Z,38.93
2018-12-21T16:59:46.111Z,31.73
2018-12-21T17:02:13.867Z,45.40
2018-12-21T17:04:42.156Z,47.43
2018-12-21T17:07:10.118Z,33.77
2018-12-21T17:09:38.192Z,37.60
2018-12-21T17:12:06.135Z,40.77
2018-12-21T17:14:34.146Z,48.37
2018-12-21T17:17:02.217Z,45.23
2018-12-21T17:19:30.093Z,43.67
2018-12-21T17:21:58.116Z,40.03
2018-12-21T17:24:25.988Z,45.37
2018-12-21T17:26:53.880Z,42.87
2018-12-21T17:29:22.767Z,47.07
2018-12-21T17:31:50.657Z,49.80
2018-12-21T17:34:18.738Z,44.07
2018-12-21T17:36:46.665Z,48.87
2018-12-21T17:39:19.623Z,44.07
2018-12-21T17:41:47.404Z,44.37
2018-12-21T17:44:15.347Z,48.90
2018-12-21T17:46:43.178Z,47.67
2018-12-21T17:49:11.111Z,46.33
2018-12-21T17:51:39.278Z,42.37
2018-12-21T17:54:07.380Z,41.70
2018-12-21T17:56:35.443Z,43.40
2018-12-21T17:59:03.736Z,42.70
2018-12-21T18:01:33.021Z,39.03
2018-12-21T18:04:04.114Z,43.60
2018-12-21T18:06:32.418Z,44.87
2018-12-21T18:09:00.476Z,38.43
2018-12-21T18:11:28.379Z,43.17
2018-12-21T18:13:56.223Z,40.03
2018-12-21T18:16:24.087Z,46.23
2018-12-21T18:18:51.924Z,41.50
2018-12-21T18:21:20.010Z,44.60
2018-12-21T18:23:48.304Z,48.90
2018-12-21T18:26:16.789Z,54.07
2018-12-21T18:28:44.885Z,38.03
2018-12-21T18:31:18.352Z,43.37
2018-12-21T18:33:46.454Z,53.20
2018-12-21T18:36:14.240Z,40.77
2018-12-21T18:38:42.041Z,43.53
2018-12-21T18:41:09.872Z,42.93
2018-12-21T18:43:37.707Z,49.77
2018-12-21T18:46:05.514Z,47.80
2018-12-21T18:48:33.514Z,49.20
2018-12-21T18:51:01.358Z,46.73
2018-12-21T18:53:30.273Z,47.67
2018-12-21T18:55:58.128Z,50.77
2018-12-21T18:58:26.472Z,47.23
2018-12-21T19:00:54.511Z,43.70
2018-12-21T19:03:22.537Z,42.67
2018-12-21T19:05:50.444Z,41.83
2018-12-21T19:08:18.217Z,51.30
2018-12-21T19:10:46.159Z,42.20
2018-12-21T19:13:14.035Z,45.13
2018-12-21T19:15:42.091Z,51.43
2018-12-21T19:18:11.562Z,53.00
2018-12-21T19:20:39.439Z,55.07
2018-12-21T19:23:12.664Z,52.43
2018-12-21T19:25:40.484Z,49.90
2018-12-21T19:28:08.619Z,44.80
2018-12-21T19:30:36.653Z,54.17
2018-12-21T19:33:04.774Z,44.77
2018-12-21T19:35:32.670Z,50.90
2018-12-21T19:38:00.670Z,55.47
2018-12-21T19:40:28.939Z,52.37
2018-12-21T19:42:56.953Z,52.00
2018-12-21T19:45:25.058Z,46.87
2018-12-21T19:47:52.863Z,41.30
2018-12-21T19:50:21.777Z,49.03
2018-12-21T19:52:49.893Z,61.03
2018-12-21T19:56:22.018Z,44.97
2018-12-21T19:58:49.938Z,47.10
2018-12-21T20:01:18.041Z,47.83
2018-12-21T20:03:46.273Z,43.10
2018-12-21T20:06:14.371Z,50.07
2018-12-21T20:08:42.409Z,49.90
2018-12-21T20:11:10.275Z,51.87
2018-12-21T20:13:38.295Z,40.10
2018-12-21T20:16:06.097Z,50.73
2018-12-21T20:18:35.235Z,54.50
2018-12-21T20:21:03.013Z,57.83
2018-12-21T20:23:31.041Z,46.80
2018-12-21T20:25:59.128Z,47.70
2018-12-21T20:28:27.188Z,47.70
2018-12-21T20:30:55.269Z,51.73
2018-12-21T20:33:23.321Z,44.70
2018-12-21T20:35:51.189Z,49.40
2018-12-21T20:38:21.550Z,50.67
2018-12-21T20:40:49.581Z,52.50
2018-12-21T20:43:18.286Z,51.33
2018-12-21T20:45:46.163Z,47.27
2018-12-21T20:48:14.206Z,51.10
2018-12-21T20:50:42.074Z,50.30
2018-12-21T20:53:11.142Z,60.27
2018-12-21T20:55:39.278Z,52.40
2018-12-21T20:58:10.810Z,44.13
2018-12-21T21:00:38.693Z,50.70
2018-12-21T21:03:06.751Z,53.33
2018-12-21T21:05:35.036Z,39.07
2018-12-21T21:08:03.082Z,52.40
2018-12-21T21:10:30.933Z,46.83
2018-12-21T21:12:58.846Z,43.10
2018-12-21T21:15:27.075Z,42.27
2018-12-21T21:17:54.980Z,54.27
2018-12-21T21:20:23.234Z,41.87
2018-12-21T21:22:51.334Z,55.03
2018-12-21T21:25:19.323Z,46.43
2018-12-21T21:27:47.722Z,43.87
2018-12-21T21:30:16.879Z,47.83
2018-12-21T21:32:44.811Z,51.73
2018-12-21T21:35:12.847Z,45.37
2018-12-21T21:37:40.792Z,50.70
2018-12-21T21:40:12.665Z,47.37
2018-12-21T21:42:40.579Z,54.37
2018-12-21T21:45:08.679Z,54.20
2018-12-21T21:47:36.727Z,47.70
2018-12-21T21:50:05.007Z,49.00
2018-12-21T21:52:33.053Z,44.73
2018-12-21T21:55:00.938Z,45.37
2018-12-21T21:57:29.244Z,44.93
2018-12-21T21:59:58.332Z,41.00
2018-12-21T22:02:26.612Z,43.27
2018-12-21T22:04:54.638Z,40.23
2018-12-21T22:07:22.528Z,52.23
2018-12-21T22:09:50.383Z,40.00
2018-12-21T22:12:18.260Z,48.23
2018-12-21T22:14:46.317Z,52.67
2018-12-21T22:17:14.394Z,46.90
2018-12-21T22:19:42.226Z,41.97
2018-12-21T22:22:10.126Z,57.20
2018-12-21T22:24:37.960Z,40.60
2018-12-21T22:27:05.747Z,40.80
2018-12-21T22:29:33.695Z,49.53
2018-12-21T22:32:01.524Z,58.70
2018-12-21T22:34:29.431Z,50.73
2018-12-21T22:36:57.272Z,43.70
2018-12-21T22:39:25.187Z,38.33
2018-12-21T22:41:53.011Z,39.97
2018-12-21T22:44:20.823Z,51.40
2018-12-21T22:46:48.627Z,38.70
2018-12-21T22:49:16.692Z,47.60
2018-12-21T22:51:46.479Z,53.57
2018-12-21T22:54:14.434Z,47.90
2018-12-21T22:56:42.232Z,55.43
2018-12-21T22:59:10.159Z,45.63
2018-12-21T23:01:37.998Z,51.83
2018-12-21T23:04:05.820Z,49.80
2018-12-21T23:06:33.719Z,46.87
2018-12-21T23:09:01.783Z,50.53
2018-12-21T23:11:31.559Z,46.03
2018-12-21T23:13:59.363Z,54.30
2018-12-21T23:16:27.262Z,51.60
2018-12-21T23:18:55.052Z,44.80
2018-12-21T23:21:22.873Z,46.03
2018-12-21T23:23:50.683Z,58.23
2018-12-21T23:26:18.549Z,50.13
2018-12-21T23:28:46.349Z,41.90
2018-12-21T23:31:14.240Z,49.20
2018-12-21T23:33:42.012Z,54.10
2018-12-21T23:36:09.891Z,45.30
2018-12-21T23:38:37.667Z,62.23
2018-12-21T23:41:07.713Z,60.47
2018-12-21T23:43:43.168Z,53.87
2018-12-21T23:46:05.466Z,47.63
2018-12-21T23:48:33.321Z,53.80
2018-12-21T23:51:01.145Z,61.93
2018-12-21T23:53:29.044Z,50.47
2018-12-21T23:55:56.856Z,51.07
2018-12-21T23:58:24.685Z,55.93
